sensor_id;sensor_type;location;lat;lon;timestamp;P1;durP1;ratioP1;P2;durP2;ratioP2
2406;SDS011;37709;53.480;9.688;2022-08-01T00:00:47;43.53;;;29.20;;
2406;SDS011;37709;53.480;9.688;2022-08-01T00:03:15;45.23;;;29.43;;
2406;SDS011;37709;53.480;9.688;2022-08-01T00:05:43;53.40;;;30.30;;
2406;SDS011;37709;53.480;9.688;2022-08-01T00:08:12;36.07;;;25.70;;
2406;SDS011;37709;53.480;9.688;2022-08-01T00:10:39;52.87;;;30.83;;
2406;SDS011;37709;53.480;9.688;2022-08-01T00:13:07;44.67;;;29.17;;
2406;SDS011;37709;53.480;9.688;2022-08-01T00:15:36;47.60;;;28.07;;
2406;SDS011;37709;53.480;9.688;2022-08-01T00:18:04;38.37;;;24.90;;
2406;SDS011;37709;53.480;9.688;2022-08-01T00:20:31;37.77;;;24.20;;
2406;SDS011;37709;53.480;9.688;2022-08-01T00:23:00;38.67;;;24.40;;
2406;SDS011;37709;53.480;9.688;2022-08-01T00:25:29;35.60;;;23.40;;
2406;SDS011;37709;53.480;9.688;2022-08-01T00:28:00;34.67;;;23.53;;
2406;SDS011;37709;53.480;9.688;2022-08-01T00:30:30;30.63;;;22.87;;
2406;SDS011;37709;53.480;9.688;2022-08-01T00:32:58;47.50;;;26.60;;
2406;SDS011;37709;53.480;9.688;2022-08-01T00:35:25;28.27;;;22.13;;
2406;SDS011;37709;53.480;9.688;2022-08-01T00:37:53;41.77;;;23.63;;
2406;SDS011;37709;53.480;9.688;2022-08-01T00:40:20;36.60;;;23.17;;
2406;SDS011;37709;53.480;9.688;2022-08-01T00:42:48;33.03;;;21.67;;
2406;SDS011;37709;53.480;9.688;2022-08-01T00:45:15;29.63;;;21.00;;
2406;SDS011;37709;53.480;9.688;2022-08-01T00:47:43;40.27;;;21.37;;
2406;SDS011;37709;53.480;9.688;2022-08-01T00:50:11;28.67;;;20.43;;
2406;SDS011;37709;53.480;9.688;2022-08-01T00:52:39;28.83;;;18.77;;
2406;SDS011;37709;53.480;9.688;2022-08-01T00:55:08;34.90;;;18.70;;
2406;SDS011;37709;53.480;9.688;2022-08-01T00:57:41;25.97;;;17.00;;
2406;SDS011;37709;53.480;9.688;2022-08-01T01:00:28;32.07;;;18.73;;
2406;SDS011;37709;53.480;9.688;2022-08-01T01:02:58;26.63;;;17.77;;
2406;SDS011;37709;53.480;9.688;2022-08-01T01:05:26;19.93;;;14.63;;
2406;SDS011;37709;53.480;9.688;2022-08-01T01:07:56;24.77;;;16.63;;
2406;SDS011;37709;53.480;9.688;2022-08-01T01:10:30;21.50;;;15.93;;
2406;SDS011;37709;53.480;9.688;2022-08-01T01:13:09;23.47;;;16.53;;
2406;SDS011;37709;53.480;9.688;2022-08-01T01:16:05;19.27;;;15.33;;
2406;SDS011;37709;53.480;9.688;2022-08-01T01:19:00;19.83;;;16.03;;
2406;SDS011;37709;53.480;9.688;2022-08-01T01:21:31;16.97;;;14.43;;
2406;SDS011;37709;53.480;9.688;2022-08-01T01:24:31;17.70;;;14.70;;
2406;SDS011;37709;53.480;9.688;2022-08-01T01:27:10;18.53;;;13.27;;
2406;SDS011;37709;53.480;9.688;2022-08-01T01:29:49;16.90;;;13.73;;
2406;SDS011;37709;53.480;9.688;2022-08-01T01:32:30;15.03;;;13.40;;
2406;SDS011;37709;53.480;9.688;2022-08-01T01:35:04;17.87;;;13.30;;
2406;SDS011;37709;53.480;9.688;2022-08-01T01:37:34;13.97;;;12.03;;
2406;SDS011;37709;53.480;9.688;2022-08-01T01:40:05;13.50;;;11.53;;
2406;SDS011;37709;53.480;9.688;2022-08-01T01:42:36;11.93;;;10.83;;
2406;SDS011;37709;53.480;9.688;2022-08-01T01:45:05;13.43;;;10.17;;
2406;SDS011;37709;53.480;9.688;2022-08-01T01:47:34;12.90;;;11.70;;
2406;SDS011;37709;53.480;9.688;2022-08-01T01:50:03;11.93;;;10.70;;
2406;SDS011;37709;53.480;9.688;2022-08-01T01:52:33;12.20;;;11.00;;
2406;SDS011;37709;53.480;9.688;2022-08-01T01:55:01;13.37;;;11.60;;
2406;SDS011;37709;53.480;9.688;2022-08-01T01:57:33;11.47;;;10.20;;
2406;SDS011;37709;53.480;9.688;2022-08-01T02:00:06;11.83;;;10.63;;
2406;SDS011;37709;53.480;9.688;2022-08-01T02:02:38;10.97;;;9.90;;
2406;SDS011;37709;53.480;9.688;2022-08-01T02:05:08;12.63;;;10.00;;
2406;SDS011;37709;53.480;9.688;2022-08-01T02:07:38;11.17;;;10.17;;
2406;SDS011;37709;53.480;9.688;2022-08-01T02:10:07;12.27;;;10.40;;
2406;SDS011;37709;53.480;9.688;2022-08-01T02:12:37;11.60;;;9.53;;
2406;SDS011;37709;53.480;9.688;2022-08-01T02:15:08;13.83;;;10.77;;
2406;SDS011;37709;53.480;9.688;2022-08-01T02:17:38;12.37;;;10.53;;
2406;SDS011;37709;53.480;9.688;2022-08-01T02:20:09;11.20;;;10.10;;
2406;SDS011;37709;53.480;9.688;2022-08-01T02:22:52;11.07;;;10.07;;
2406;SDS011;37709;53.480;9.688;2022-08-01T02:25:23;11.00;;;9.90;;
2406;SDS011;37709;53.480;9.688;2022-08-01T02:27:59;10.83;;;9.83;;
2406;SDS011;37709;53.480;9.688;2022-08-01T02:30:35;11.67;;;10.50;;
2406;SDS011;37709;53.480;9.688;2022-08-01T02:33:06;11.13;;;9.10;;
2406;SDS011;37709;53.480;9.688;2022-08-01T02:35:43;10.83;;;9.73;;
2406;SDS011;37709;53.480;9.688;2022-08-01T02:38:35;11.63;;;9.50;;
2406;SDS011;37709;53.480;9.688;2022-08-01T02:41:10;10.10;;;9.20;;
2406;SDS011;37709;53.480;9.688;2022-08-01T02:43:42;10.37;;;8.57;;
2406;SDS011;37709;53.480;9.688;2022-08-01T02:46:23;10.23;;;8.50;;
2406;SDS011;37709;53.480;9.688;2022-08-01T02:48:56;13.23;;;10.20;;
2406;SDS011;37709;53.480;9.688;2022-08-01T02:51:27;10.37;;;9.00;;
2406;SDS011;37709;53.480;9.688;2022-08-01T02:53:57;10.40;;;9.33;;
2406;SDS011;37709;53.480;9.688;2022-08-01T02:56:26;10.20;;;8.87;;
2406;SDS011;37709;53.480;9.688;2022-08-01T02:59:05;9.87;;;8.87;;
2406;SDS011;37709;53.480;9.688;2022-08-01T03:01:39;9.97;;;8.10;;
2406;SDS011;37709;53.480;9.688;2022-08-01T03:04:09;11.27;;;8.60;;
2406;SDS011;37709;53.480;9.688;2022-08-01T03:06:38;9.57;;;7.90;;
2406;SDS011;37709;53.480;9.688;2022-08-01T03:09:10;10.40;;;7.50;;
2406;SDS011;37709;53.480;9.688;2022-08-01T03:11:42;7.20;;;6.50;;
2406;SDS011;37709;53.480;9.688;2022-08-01T03:14:12;8.80;;;7.73;;
2406;SDS011;37709;53.480;9.688;2022-08-01T03:16:41;8.03;;;7.17;;
2406;SDS011;37709;53.480;9.688;2022-08-01T03:19:11;6.90;;;6.20;;
2406;SDS011;37709;53.480;9.688;2022-08-01T03:21:40;8.07;;;7.30;;
2406;SDS011;37709;53.480;9.688;2022-08-01T03:24:10;9.43;;;7.00;;
2406;SDS011;37709;53.480;9.688;2022-08-01T03:26:39;8.67;;;7.27;;
2406;SDS011;37709;53.480;9.688;2022-08-01T03:29:10;7.90;;;6.93;;
2406;SDS011;37709;53.480;9.688;2022-08-01T03:31:43;7.93;;;7.13;;
2406;SDS011;37709;53.480;9.688;2022-08-01T03:34:13;9.07;;;5.90;;
2406;SDS011;37709;53.480;9.688;2022-08-01T03:36:45;7.30;;;6.60;;
2406;SDS011;37709;53.480;9.688;2022-08-01T03:39:16;8.07;;;6.60;;
2406;SDS011;37709;53.480;9.688;2022-08-01T03:41:48;6.77;;;6.13;;
2406;SDS011;37709;53.480;9.688;2022-08-01T03:44:24;5.47;;;4.97;;
2406;SDS011;37709;53.480;9.688;2022-08-01T03:46:58;8.00;;;5.80;;
2406;SDS011;37709;53.480;9.688;2022-08-01T03:49:29;6.57;;;5.77;;
2406;SDS011;37709;53.480;9.688;2022-08-01T03:52:01;11.37;;;5.80;;
2406;SDS011;37709;53.480;9.688;2022-08-01T03:54:32;8.07;;;6.63;;
2406;SDS011;37709;53.480;9.688;2022-08-01T03:57:02;8.90;;;6.03;;
2406;SDS011;37709;53.480;9.688;2022-08-01T03:59:32;11.23;;;6.23;;
2406;SDS011;37709;53.480;9.688;2022-08-01T04:02:03;7.90;;;6.67;;
2406;SDS011;37709;53.480;9.688;2022-08-01T04:04:33;12.63;;;7.77;;
2406;SDS011;37709;53.480;9.688;2022-08-01T04:07:01;8.63;;;6.50;;
2406;SDS011;37709;53.480;9.688;2022-08-01T04:09:34;12.00;;;6.50;;
2406;SDS011;37709;53.480;9.688;2022-08-01T04:12:01;7.87;;;6.40;;
2406;SDS011;37709;53.480;9.688;2022-08-01T04:14:38;12.70;;;7.53;;
2406;SDS011;37709;53.480;9.688;2022-08-01T04:17:06;10.60;;;7.37;;
2406;SDS011;37709;53.480;9.688;2022-08-01T04:19:33;9.17;;;6.90;;
2406;SDS011;37709;53.480;9.688;2022-08-01T04:22:01;10.50;;;6.63;;
2406;SDS011;37709;53.480;9.688;2022-08-01T04:24:30;11.77;;;7.40;;
2406;SDS011;37709;53.480;9.688;2022-08-01T04:27:01;8.40;;;6.17;;
2406;SDS011;37709;53.480;9.688;2022-08-01T04:29:31;12.50;;;6.40;;
2406;SDS011;37709;53.480;9.688;2022-08-01T04:32:01;7.90;;;6.17;;
2406;SDS011;37709;53.480;9.688;2022-08-01T04:34:30;8.87;;;6.47;;
2406;SDS011;37709;53.480;9.688;2022-08-01T04:36:59;8.07;;;5.80;;
2406;SDS011;37709;53.480;9.688;2022-08-01T04:39:28;10.60;;;6.80;;
2406;SDS011;37709;53.480;9.688;2022-08-01T04:42:16;9.17;;;6.33;;
2406;SDS011;37709;53.480;9.688;2022-08-01T04:44:59;7.77;;;5.97;;
2406;SDS011;37709;53.480;9.688;2022-08-01T04:47:27;9.30;;;6.50;;
2406;SDS011;37709;53.480;9.688;2022-08-01T04:49:56;7.70;;;6.53;;
2406;SDS011;37709;53.480;9.688;2022-08-01T04:52:32;7.40;;;5.60;;
2406;SDS011;37709;53.480;9.688;2022-08-01T04:55:04;5.73;;;5.13;;
2406;SDS011;37709;53.480;9.688;2022-08-01T04:57:35;5.90;;;5.17;;
2406;SDS011;37709;53.480;9.688;2022-08-01T05:00:06;4.33;;;4.03;;
2406;SDS011;37709;53.480;9.688;2022-08-01T05:02:34;8.17;;;4.30;;
2406;SDS011;37709;53.480;9.688;2022-08-01T05:05:02;4.83;;;4.00;;
2406;SDS011;37709;53.480;9.688;2022-08-01T05:07:29;5.20;;;4.50;;
2406;SDS011;37709;53.480;9.688;2022-08-01T05:10:10;3.73;;;3.37;;
2406;SDS011;37709;53.480;9.688;2022-08-01T05:12:38;5.13;;;4.20;;
2406;SDS011;37709;53.480;9.688;2022-08-01T05:15:06;4.00;;;3.60;;
2406;SDS011;37709;53.480;9.688;2022-08-01T05:17:41;4.20;;;2.90;;
2406;SDS011;37709;53.480;9.688;2022-08-01T05:20:13;3.20;;;2.90;;
2406;SDS011;37709;53.480;9.688;2022-08-01T05:22:40;6.10;;;2.90;;
2406;SDS011;37709;53.480;9.688;2022-08-01T05:25:09;3.50;;;2.60;;
2406;SDS011;37709;53.480;9.688;2022-08-01T05:27:39;3.00;;;2.70;;
2406;SDS011;37709;53.480;9.688;2022-08-01T05:30:08;3.10;;;2.23;;
2406;SDS011;37709;53.480;9.688;2022-08-01T05:32:36;2.80;;;2.40;;
2406;SDS011;37709;53.480;9.688;2022-08-01T05:35:05;5.60;;;2.63;;
2406;SDS011;37709;53.480;9.688;2022-08-01T05:37:33;4.57;;;3.00;;
2406;SDS011;37709;53.480;9.688;2022-08-01T05:40:01;6.87;;;2.90;;
2406;SDS011;37709;53.480;9.688;2022-08-01T05:42:29;5.77;;;2.67;;
2406;SDS011;37709;53.480;9.688;2022-08-01T05:44:57;4.97;;;2.57;;
2406;SDS011;37709;53.480;9.688;2022-08-01T05:47:24;5.37;;;2.40;;
2406;SDS011;37709;53.480;9.688;2022-08-01T05:49:52;4.87;;;2.90;;
2406;SDS011;37709;53.480;9.688;2022-08-01T05:52:19;3.80;;;2.50;;
2406;SDS011;37709;53.480;9.688;2022-08-01T05:54:47;10.03;;;2.80;;
2406;SDS011;37709;53.480;9.688;2022-08-01T05:57:14;6.00;;;2.70;;
2406;SDS011;37709;53.480;9.688;2022-08-01T05:59:41;6.60;;;2.90;;
2406;SDS011;37709;53.480;9.688;2022-08-01T06:02:09;5.90;;;2.43;;
2406;SDS011;37709;53.480;9.688;2022-08-01T06:04:37;4.13;;;2.20;;
2406;SDS011;37709;53.480;9.688;2022-08-01T06:07:04;8.07;;;2.47;;
2406;SDS011;37709;53.480;9.688;2022-08-01T06:09:31;4.93;;;2.70;;
2406;SDS011;37709;53.480;9.688;2022-08-01T06:11:59;3.97;;;2.40;;
2406;SDS011;37709;53.480;9.688;2022-08-01T06:14:27;4.43;;;2.80;;
2406;SDS011;37709;53.480;9.688;2022-08-01T06:16:54;7.67;;;2.80;;
2406;SDS011;37709;53.480;9.688;2022-08-01T06:19:22;6.93;;;2.90;;
2406;SDS011;37709;53.480;9.688;2022-08-01T06:21:53;4.00;;;2.63;;
2406;SDS011;37709;53.480;9.688;2022-08-01T06:24:20;5.30;;;3.40;;
2406;SDS011;37709;53.480;9.688;2022-08-01T06:26:49;6.00;;;2.70;;
2406;SDS011;37709;53.480;9.688;2022-08-01T06:29:17;9.80;;;2.23;;
2406;SDS011;37709;53.480;9.688;2022-08-01T06:31:44;8.67;;;3.07;;
2406;SDS011;37709;53.480;9.688;2022-08-01T06:34:12;5.70;;;2.80;;
2406;SDS011;37709;53.480;9.688;2022-08-01T06:36:42;6.97;;;2.47;;
2406;SDS011;37709;53.480;9.688;2022-08-01T06:39:09;9.80;;;2.87;;
2406;SDS011;37709;53.480;9.688;2022-08-01T06:41:36;8.23;;;2.90;;
2406;SDS011;37709;53.480;9.688;2022-08-01T06:44:04;5.70;;;2.63;;
2406;SDS011;37709;53.480;9.688;2022-08-01T06:46:32;6.97;;;3.17;;
2406;SDS011;37709;53.480;9.688;2022-08-01T06:49:02;9.33;;;2.90;;
2406;SDS011;37709;53.480;9.688;2022-08-01T06:51:30;6.90;;;3.00;;
2406;SDS011;37709;53.480;9.688;2022-08-01T06:53:57;9.73;;;2.83;;
2406;SDS011;37709;53.480;9.688;2022-08-01T06:56:25;6.23;;;2.97;;
2406;SDS011;37709;53.480;9.688;2022-08-01T06:58:52;5.93;;;2.80;;
2406;SDS011;37709;53.480;9.688;2022-08-01T07:01:23;7.97;;;2.93;;
2406;SDS011;37709;53.480;9.688;2022-08-01T07:03:50;7.03;;;2.83;;
2406;SDS011;37709;53.480;9.688;2022-08-01T07:06:24;7.37;;;3.50;;
2406;SDS011;37709;53.480;9.688;2022-08-01T07:08:52;8.53;;;3.50;;
2406;SDS011;37709;53.480;9.688;2022-08-01T07:11:21;7.73;;;3.03;;
2406;SDS011;37709;53.480;9.688;2022-08-01T07:13:49;11.00;;;3.40;;
2406;SDS011;37709;53.480;9.688;2022-08-01T07:16:17;7.80;;;3.70;;
2406;SDS011;37709;53.480;9.688;2022-08-01T07:18:45;7.90;;;3.87;;
2406;SDS011;37709;53.480;9.688;2022-08-01T07:21:12;11.93;;;4.30;;
2406;SDS011;37709;53.480;9.688;2022-08-01T07:23:59;10.43;;;3.50;;
2406;SDS011;37709;53.480;9.688;2022-08-01T07:26:27;7.17;;;3.27;;
2406;SDS011;37709;53.480;9.688;2022-08-01T07:28:55;11.20;;;4.40;;
2406;SDS011;37709;53.480;9.688;2022-08-01T07:31:23;9.63;;;4.00;;
2406;SDS011;37709;53.480;9.688;2022-08-01T07:33:55;10.70;;;3.50;;
2406;SDS011;37709;53.480;9.688;2022-08-01T07:36:22;8.93;;;3.30;;
2406;SDS011;37709;53.480;9.688;2022-08-01T07:38:49;11.27;;;3.47;;
2406;SDS011;37709;53.480;9.688;2022-08-01T07:41:18;9.57;;;3.33;;
2406;SDS011;37709;53.480;9.688;2022-08-01T07:43:46;6.80;;;3.13;;
2406;SDS011;37709;53.480;9.688;2022-08-01T07:49:17;9.10;;;2.77;;
2406;SDS011;37709;53.480;9.688;2022-08-01T07:51:47;7.70;;;2.27;;
2406;SDS011;37709;53.480;9.688;2022-08-01T07:54:34;13.03;;;3.40;;
2406;SDS011;37709;53.480;9.688;2022-08-01T07:57:03;5.73;;;3.07;;
2406;SDS011;37709;53.480;9.688;2022-08-01T07:59:30;7.47;;;2.50;;
2406;SDS011;37709;53.480;9.688;2022-08-01T08:01:59;5.93;;;2.40;;
2406;SDS011;37709;53.480;9.688;2022-08-01T08:04:27;10.27;;;3.20;;
2406;SDS011;37709;53.480;9.688;2022-08-01T08:06:55;7.10;;;2.90;;
2406;SDS011;37709;53.480;9.688;2022-08-01T08:09:22;7.90;;;2.20;;
2406;SDS011;37709;53.480;9.688;2022-08-01T08:11:50;8.27;;;2.53;;
2406;SDS011;37709;53.480;9.688;2022-08-01T08:14:18;5.97;;;2.50;;
2406;SDS011;37709;53.480;9.688;2022-08-01T08:16:45;6.40;;;2.17;;
2406;SDS011;37709;53.480;9.688;2022-08-01T08:19:14;4.90;;;2.00;;
2406;SDS011;37709;53.480;9.688;2022-08-01T08:21:42;5.30;;;2.10;;
2406;SDS011;37709;53.480;9.688;2022-08-01T08:24:09;7.07;;;1.83;;
2406;SDS011;37709;53.480;9.688;2022-08-01T08:26:56;4.10;;;2.20;;
2406;SDS011;37709;53.480;9.688;2022-08-01T08:29:25;6.67;;;2.27;;
2406;SDS011;37709;53.480;9.688;2022-08-01T08:31:54;10.57;;;2.57;;
2406;SDS011;37709;53.480;9.688;2022-08-01T08:34:23;6.87;;;2.37;;
2406;SDS011;37709;53.480;9.688;2022-08-01T08:36:52;8.37;;;2.97;;
2406;SDS011;37709;53.480;9.688;2022-08-01T08:39:21;6.47;;;2.60;;
2406;SDS011;37709;53.480;9.688;2022-08-01T08:41:49;7.60;;;2.80;;
2406;SDS011;37709;53.480;9.688;2022-08-01T08:44:17;6.80;;;2.13;;
2406;SDS011;37709;53.480;9.688;2022-08-01T08:46:50;6.97;;;2.20;;
2406;SDS011;37709;53.480;9.688;2022-08-01T08:49:20;6.33;;;2.50;;
2406;SDS011;37709;53.480;9.688;2022-08-01T08:51:50;5.73;;;2.50;;
2406;SDS011;37709;53.480;9.688;2022-08-01T08:54:20;5.87;;;2.37;;
2406;SDS011;37709;53.480;9.688;2022-08-01T08:56:58;3.70;;;1.70;;
2406;SDS011;37709;53.480;9.688;2022-08-01T08:59:26;7.10;;;2.20;;
2406;SDS011;37709;53.480;9.688;2022-08-01T09:01:55;4.90;;;2.00;;
2406;SDS011;37709;53.480;9.688;2022-08-01T09:04:25;7.50;;;2.30;;
2406;SDS011;37709;53.480;9.688;2022-08-01T09:06:53;9.73;;;2.50;;
2406;SDS011;37709;53.480;9.688;2022-08-01T09:09:22;6.53;;;1.77;;
2406;SDS011;37709;53.480;9.688;2022-08-01T09:11:50;7.90;;;2.70;;
2406;SDS011;37709;53.480;9.688;2022-08-01T09:14:23;5.97;;;2.47;;
2406;SDS011;37709;53.480;9.688;2022-08-01T09:17:00;7.67;;;2.10;;
2406;SDS011;37709;53.480;9.688;2022-08-01T09:19:34;5.43;;;1.90;;
2406;SDS011;37709;53.480;9.688;2022-08-01T09:22:14;8.40;;;2.33;;
2406;SDS011;37709;53.480;9.688;2022-08-01T09:25:02;5.20;;;1.80;;
2406;SDS011;37709;53.480;9.688;2022-08-01T09:27:32;6.57;;;2.07;;
2406;SDS011;37709;53.480;9.688;2022-08-01T09:32:56;5.93;;;2.40;;
2406;SDS011;37709;53.480;9.688;2022-08-01T09:35:25;7.37;;;2.30;;
2406;SDS011;37709;53.480;9.688;2022-08-01T09:40:48;4.27;;;1.60;;
2406;SDS011;37709;53.480;9.688;2022-08-01T09:43:18;6.70;;;1.77;;
2406;SDS011;37709;53.480;9.688;2022-08-01T09:45:47;4.43;;;1.33;;
2406;SDS011;37709;53.480;9.688;2022-08-01T09:48:19;5.30;;;1.60;;
2406;SDS011;37709;53.480;9.688;2022-08-01T09:50:56;6.27;;;2.00;;
2406;SDS011;37709;53.480;9.688;2022-08-01T09:53:39;3.67;;;1.20;;
2406;SDS011;37709;53.480;9.688;2022-08-01T09:56:19;3.70;;;1.90;;
2406;SDS011;37709;53.480;9.688;2022-08-01T09:58:57;4.20;;;1.87;;
2406;SDS011;37709;53.480;9.688;2022-08-01T10:01:28;3.70;;;2.07;;
2406;SDS011;37709;53.480;9.688;2022-08-01T10:06:39;4.60;;;2.40;;
2406;SDS011;37709;53.480;9.688;2022-08-01T10:09:10;5.50;;;1.77;;
2406;SDS011;37709;53.480;9.688;2022-08-01T10:11:40;4.23;;;2.10;;
2406;SDS011;37709;53.480;9.688;2022-08-01T10:14:11;6.53;;;1.97;;
2406;SDS011;37709;53.480;9.688;2022-08-01T10:16:44;4.60;;;1.93;;
2406;SDS011;37709;53.480;9.688;2022-08-01T10:19:31;4.70;;;1.57;;
2406;SDS011;37709;53.480;9.688;2022-08-01T10:21:59;3.50;;;1.50;;
2406;SDS011;37709;53.480;9.688;2022-08-01T10:24:28;5.70;;;1.80;;
2406;SDS011;37709;53.480;9.688;2022-08-01T10:27:03;8.40;;;2.10;;
2406;SDS011;37709;53.480;9.688;2022-08-01T10:29:37;5.90;;;1.93;;
2406;SDS011;37709;53.480;9.688;2022-08-01T10:32:25;6.93;;;1.50;;
2406;SDS011;37709;53.480;9.688;2022-08-01T10:34:55;4.57;;;1.33;;
2406;SDS011;37709;53.480;9.688;2022-08-01T10:37:24;3.77;;;1.50;;
2406;SDS011;37709;53.480;9.688;2022-08-01T10:39:53;5.77;;;1.90;;
2406;SDS011;37709;53.480;9.688;2022-08-01T10:42:44;4.77;;;1.60;;
2406;SDS011;37709;53.480;9.688;2022-08-01T10:45:14;6.10;;;1.80;;
2406;SDS011;37709;53.480;9.688;2022-08-01T10:47:47;3.20;;;1.40;;
2406;SDS011;37709;53.480;9.688;2022-08-01T10:50:25;3.27;;;1.50;;
2406;SDS011;37709;53.480;9.688;2022-08-01T10:55:46;3.37;;;1.50;;
2406;SDS011;37709;53.480;9.688;2022-08-01T10:58:26;3.50;;;1.63;;
2406;SDS011;37709;53.480;9.688;2022-08-01T11:06:28;5.63;;;2.00;;
2406;SDS011;37709;53.480;9.688;2022-08-01T11:28:30;3.97;;;1.60;;
2406;SDS011;37709;53.480;9.688;2022-08-01T11:44:26;4.53;;;1.80;;
2406;SDS011;37709;53.480;9.688;2022-08-01T11:47:03;4.07;;;1.40;;
2406;SDS011;37709;53.480;9.688;2022-08-01T11:52:08;3.37;;;1.67;;
2406;SDS011;37709;53.480;9.688;2022-08-01T11:54:47;4.87;;;1.60;;
2406;SDS011;37709;53.480;9.688;2022-08-01T11:57:20;6.10;;;1.30;;
2406;SDS011;37709;53.480;9.688;2022-08-01T11:59:53;4.23;;;1.47;;
2406;SDS011;37709;53.480;9.688;2022-08-01T12:02:38;3.67;;;1.30;;
2406;SDS011;37709;53.480;9.688;2022-08-01T12:05:07;3.30;;;1.60;;
2406;SDS011;37709;53.480;9.688;2022-08-01T12:07:38;4.47;;;1.60;;
2406;SDS011;37709;53.480;9.688;2022-08-01T12:10:08;3.27;;;1.30;;
2406;SDS011;37709;53.480;9.688;2022-08-01T12:12:45;3.70;;;1.27;;
2406;SDS011;37709;53.480;9.688;2022-08-01T12:15:15;3.37;;;1.40;;
2406;SDS011;37709;53.480;9.688;2022-08-01T12:17:45;5.30;;;1.50;;
2406;SDS011;37709;53.480;9.688;2022-08-01T12:20:28;5.63;;;1.60;;
2406;SDS011;37709;53.480;9.688;2022-08-01T12:22:59;6.40;;;1.53;;
2406;SDS011;37709;53.480;9.688;2022-08-01T12:25:29;5.20;;;1.63;;
2406;SDS011;37709;53.480;9.688;2022-08-01T12:27:59;2.73;;;1.30;;
2406;SDS011;37709;53.480;9.688;2022-08-01T12:30:31;3.50;;;1.33;;
2406;SDS011;37709;53.480;9.688;2022-08-01T12:33:03;2.67;;;1.13;;
2406;SDS011;37709;53.480;9.688;2022-08-01T12:35:32;3.63;;;1.30;;
2406;SDS011;37709;53.480;9.688;2022-08-01T12:38:03;4.70;;;1.60;;
2406;SDS011;37709;53.480;9.688;2022-08-01T12:40:32;4.23;;;1.23;;
2406;SDS011;37709;53.480;9.688;2022-08-01T12:43:03;3.70;;;1.47;;
2406;SDS011;37709;53.480;9.688;2022-08-01T12:45:39;5.10;;;1.70;;
2406;SDS011;37709;53.480;9.688;2022-08-01T12:48:23;3.10;;;1.40;;
2406;SDS011;37709;53.480;9.688;2022-08-01T12:50:51;3.37;;;1.17;;
2406;SDS011;37709;53.480;9.688;2022-08-01T12:53:20;2.93;;;1.40;;
2406;SDS011;37709;53.480;9.688;2022-08-01T12:55:52;3.40;;;1.40;;
2406;SDS011;37709;53.480;9.688;2022-08-01T12:58:32;4.60;;;1.50;;
2406;SDS011;37709;53.480;9.688;2022-08-01T13:01:04;4.03;;;1.63;;
2406;SDS011;37709;53.480;9.688;2022-08-01T13:03:34;3.33;;;1.20;;
2406;SDS011;37709;53.480;9.688;2022-08-01T13:06:09;3.93;;;1.63;;
2406;SDS011;37709;53.480;9.688;2022-08-01T13:08:38;3.03;;;1.30;;
2406;SDS011;37709;53.480;9.688;2022-08-01T13:11:06;3.40;;;1.10;;
2406;SDS011;37709;53.480;9.688;2022-08-01T13:13:44;3.33;;;1.50;;
2406;SDS011;37709;53.480;9.688;2022-08-01T13:16:17;2.80;;;1.20;;
2406;SDS011;37709;53.480;9.688;2022-08-01T13:19:04;4.37;;;1.13;;
2406;SDS011;37709;53.480;9.688;2022-08-01T13:21:33;3.43;;;1.37;;
2406;SDS011;37709;53.480;9.688;2022-08-01T13:24:28;4.70;;;1.50;;
2406;SDS011;37709;53.480;9.688;2022-08-01T13:26:58;3.63;;;1.10;;
2406;SDS011;37709;53.480;9.688;2022-08-01T13:29:34;3.87;;;1.60;;
2406;SDS011;37709;53.480;9.688;2022-08-01T13:35:02;3.70;;;1.30;;
2406;SDS011;37709;53.480;9.688;2022-08-01T13:37:31;2.57;;;1.30;;
2406;SDS011;37709;53.480;9.688;2022-08-01T13:40:00;2.03;;;0.90;;
2406;SDS011;37709;53.480;9.688;2022-08-01T13:42:28;3.33;;;1.57;;
2406;SDS011;37709;53.480;9.688;2022-08-01T13:44:56;1.87;;;1.10;;
2406;SDS011;37709;53.480;9.688;2022-08-01T13:47:24;5.47;;;1.30;;
2406;SDS011;37709;53.480;9.688;2022-08-01T13:49:59;3.20;;;1.40;;
2406;SDS011;37709;53.480;9.688;2022-08-01T13:52:30;3.50;;;1.30;;
2406;SDS011;37709;53.480;9.688;2022-08-01T13:54:58;3.00;;;1.43;;
2406;SDS011;37709;53.480;9.688;2022-08-01T13:57:27;3.03;;;1.20;;
2406;SDS011;37709;53.480;9.688;2022-08-01T14:00:05;4.40;;;1.50;;
2406;SDS011;37709;53.480;9.688;2022-08-01T14:02:37;2.30;;;1.20;;
2406;SDS011;37709;53.480;9.688;2022-08-01T14:05:05;5.07;;;1.40;;
2406;SDS011;37709;53.480;9.688;2022-08-01T14:07:33;5.30;;;1.60;;
2406;SDS011;37709;53.480;9.688;2022-08-01T14:10:00;2.70;;;1.10;;
2406;SDS011;37709;53.480;9.688;2022-08-01T14:12:48;3.23;;;1.37;;
2406;SDS011;37709;53.480;9.688;2022-08-01T14:15:16;2.17;;;1.10;;
2406;SDS011;37709;53.480;9.688;2022-08-01T14:18:05;4.10;;;1.20;;
2406;SDS011;37709;53.480;9.688;2022-08-01T14:20:36;3.10;;;1.00;;
2406;SDS011;37709;53.480;9.688;2022-08-01T14:23:05;3.70;;;1.13;;
2406;SDS011;37709;53.480;9.688;2022-08-01T14:25:35;3.50;;;1.20;;
2406;SDS011;37709;53.480;9.688;2022-08-01T14:28:24;3.57;;;1.50;;
2406;SDS011;37709;53.480;9.688;2022-08-01T14:30:54;1.60;;;1.07;;
2406;SDS011;37709;53.480;9.688;2022-08-01T14:33:22;3.83;;;1.37;;
2406;SDS011;37709;53.480;9.688;2022-08-01T14:35:50;3.47;;;1.10;;
2406;SDS011;37709;53.480;9.688;2022-08-01T14:38:38;4.13;;;1.40;;
2406;SDS011;37709;53.480;9.688;2022-08-01T14:41:05;3.30;;;1.30;;
2406;SDS011;37709;53.480;9.688;2022-08-01T14:43:33;2.27;;;1.30;;
2406;SDS011;37709;53.480;9.688;2022-08-01T14:46:00;4.17;;;1.60;;
2406;SDS011;37709;53.480;9.688;2022-08-01T14:48:29;4.67;;;1.40;;
2406;SDS011;37709;53.480;9.688;2022-08-01T14:50:57;3.70;;;1.53;;
2406;SDS011;37709;53.480;9.688;2022-08-01T14:53:25;2.73;;;1.50;;
2406;SDS011;37709;53.480;9.688;2022-08-01T14:55:53;4.13;;;1.00;;
2406;SDS011;37709;53.480;9.688;2022-08-01T14:58:20;2.63;;;1.40;;
2406;SDS011;37709;53.480;9.688;2022-08-01T15:00:49;3.13;;;1.40;;
2406;SDS011;37709;53.480;9.688;2022-08-01T15:03:22;4.87;;;1.50;;
2406;SDS011;37709;53.480;9.688;2022-08-01T15:05:49;4.53;;;1.37;;
2406;SDS011;37709;53.480;9.688;2022-08-01T15:08:17;4.37;;;1.43;;
2406;SDS011;37709;53.480;9.688;2022-08-01T15:10:44;3.70;;;1.30;;
2406;SDS011;37709;53.480;9.688;2022-08-01T15:13:12;2.77;;;1.40;;
2406;SDS011;37709;53.480;9.688;2022-08-01T15:15:39;3.43;;;1.20;;
2406;SDS011;37709;53.480;9.688;2022-08-01T15:18:07;4.07;;;1.43;;
2406;SDS011;37709;53.480;9.688;2022-08-01T15:20:34;4.10;;;1.33;;
2406;SDS011;37709;53.480;9.688;2022-08-01T15:23:02;5.20;;;1.50;;
2406;SDS011;37709;53.480;9.688;2022-08-01T15:25:29;5.10;;;1.40;;
2406;SDS011;37709;53.480;9.688;2022-08-01T15:28:10;3.87;;;1.30;;
2406;SDS011;37709;53.480;9.688;2022-08-01T15:30:38;4.40;;;1.30;;
2406;SDS011;37709;53.480;9.688;2022-08-01T15:33:06;4.33;;;1.50;;
2406;SDS011;37709;53.480;9.688;2022-08-01T15:35:34;2.30;;;1.13;;
2406;SDS011;37709;53.480;9.688;2022-08-01T15:38:02;3.07;;;1.20;;
2406;SDS011;37709;53.480;9.688;2022-08-01T15:40:29;3.23;;;1.50;;
2406;SDS011;37709;53.480;9.688;2022-08-01T15:43:01;3.13;;;1.40;;
2406;SDS011;37709;53.480;9.688;2022-08-01T15:45:29;4.07;;;1.80;;
2406;SDS011;37709;53.480;9.688;2022-08-01T15:48:14;2.37;;;1.50;;
2406;SDS011;37709;53.480;9.688;2022-08-01T15:50:42;2.60;;;1.40;;
2406;SDS011;37709;53.480;9.688;2022-08-01T15:53:10;3.13;;;1.30;;
2406;SDS011;37709;53.480;9.688;2022-08-01T15:55:37;3.07;;;1.53;;
2406;SDS011;37709;53.480;9.688;2022-08-01T15:58:06;4.43;;;1.60;;
2406;SDS011;37709;53.480;9.688;2022-08-01T16:00:34;3.23;;;1.30;;
2406;SDS011;37709;53.480;9.688;2022-08-01T16:03:06;4.93;;;1.53;;
2406;SDS011;37709;53.480;9.688;2022-08-01T16:05:36;4.00;;;1.30;;
2406;SDS011;37709;53.480;9.688;2022-08-01T16:08:10;3.03;;;1.57;;
2406;SDS011;37709;53.480;9.688;2022-08-01T16:10:39;2.93;;;1.53;;
2406;SDS011;37709;53.480;9.688;2022-08-01T16:13:07;4.90;;;1.40;;
2406;SDS011;37709;53.480;9.688;2022-08-01T16:15:35;3.43;;;1.70;;
2406;SDS011;37709;53.480;9.688;2022-08-01T16:18:04;2.50;;;1.30;;